Time;durP1;ratioP1;P1;durP2;ratioP2;P2;SDS_P1;SDS_P2;PMS_P1;PMS_P2;Temp;Humidity;BMP_temperature;BMP_pressure;BME280_temperature;BME280_humidity;BME280_pressure;Samples;Min_cycle;Max_cycle;Signal;HPM_P1;HPM_P2
2022/01/03 00:00:32;;;;;;;26.67;13.70;;;;;;;;;;5129618;27;20200;-66
2022/01/03 00:03:02;;;;;;;30.90;16.03;;;;;;;;;;5134134;27;20196;-66
2022/01/03 00:05:31;;;;;;;32.97;15.57;;;;;;;;;;5137702;27;20570;-66
2022/01/03 00:07:59;;;;;;;30.23;15.73;;;;;;;;;;5138557;27;20197;-66
2022/01/03 00:10:27;;;;;;;33.33;16.07;;;;;;;;;;5132733;27;20237;-66
2022/01/03 00:12:55;;;;;;;32.23;16.93;;;;;;;;;;5137790;27;20555;-66
2022/01/03 00:15:24;;;;;;;34.33;18.73;;;;;;;;;;5137616;27;20651;-66
2022/01/03 00:17:53;;;;;;;35.93;17.30;;;;;;;;;;5138418;27;20226;-66
2022/01/03 00:20:22;;;;;;;31.47;16.23;;;;;;;;;;5135728;27;20227;-66
2022/01/03 00:22:57;;;;;;;30.73;15.77;;;;;;;;;;5130945;27;20199;-66
2022/01/03 00:25:25;;;;;;;30.60;15.83;;;;;;;;;;5129259;27;20204;-66
2022/01/03 00:27:58;;;;;;;32.20;16.37;;;;;;;;;;5132545;27;20333;-66
2022/01/03 00:30:26;;;;;;;34.43;16.07;;;;;;;;;;5126497;27;20204;-66
2022/01/03 00:32:54;;;;;;;32.37;16.10;;;;;;;;;;5137957;27;20227;-66
2022/01/03 00:35:22;;;;;;;38.40;16.00;;;;;;;;;;5138226;27;20204;-66
2022/01/03 00:37:52;;;;;;;39.70;18.07;;;;;;;;;;5125452;27;20800;-66
2022/01/03 00:40:21;;;;;;;39.90;17.73;;;;;;;;;;5128855;27;20462;-66
2022/01/03 00:42:49;;;;;;;37.87;16.77;;;;;;;;;;5129272;27;20287;-66
2022/01/03 00:45:17;;;;;;;36.73;16.27;;;;;;;;;;5136156;27;20454;-66
2022/01/03 00:47:47;;;;;;;33.37;15.67;;;;;;;;;;5136803;27;20485;-66
2022/01/03 00:50:17;;;;;;;34.87;16.00;;;;;;;;;;5136706;27;20229;-66
2022/01/03 00:52:46;;;;;;;33.03;16.10;;;;;;;;;;5128643;27;20488;-66
2022/01/03 00:55:15;;;;;;;35.13;16.73;;;;;;;;;;5137200;27;20941;-66
2022/01/03 00:57:59;;;;;;;34.27;16.13;;;;;;;;;;5136805;27;20478;-66
2022/01/03 01:00:29;;;;;;;31.23;15.20;;;;;;;;;;5137497;27;20456;-66
2022/01/03 01:03:02;;;;;;;31.60;15.30;;;;;;;;;;5126024;27;20887;-66
2022/01/03 01:05:31;;;;;;;33.63;16.33;;;;;;;;;;5128488;27;20216;-66
2022/01/03 01:07:59;;;;;;;29.77;14.57;;;;;;;;;;5138448;27;20200;-66
2022/01/03 01:10:29;;;;;;;37.33;16.43;;;;;;;;;;5138912;27;20206;-66
2022/01/03 01:12:57;;;;;;;32.50;15.93;;;;;;;;;;5139036;27;20228;-66
2022/01/03 01:15:26;;;;;;;31.57;14.83;;;;;;;;;;5138927;27;20210;-66
2022/01/03 01:17:54;;;;;;;32.80;15.33;;;;;;;;;;5140289;27;20223;-66
2022/01/03 01:20:24;;;;;;;31.77;15.27;;;;;;;;;;5136608;27;20291;-66
2022/01/03 01:22:53;;;;;;;39.60;16.23;;;;;;;;;;5128666;27;20461;-66
2022/01/03 01:27:46;;;;;;;31.13;14.27;;;;;;;;;;5136992;27;20203;-66
2022/01/03 01:28:16;;;;;;;28.50;13.87;;;;;;;;;;5125482;27;20201;-66
2022/01/03 01:30:44;;;;;;;27.67;14.77;;;;;;;;;;5133710;27;20666;-66
2022/01/03 01:33:14;;;;;;;28.23;14.30;;;;;;;;;;5131645;27;20220;-66
2022/01/03 01:35:43;;;;;;;30.33;15.33;;;;;;;;;;5135276;27;20207;-66
2022/01/03 01:38:13;;;;;;;34.37;16.87;;;;;;;;;;5128870;27;20206;-66
2022/01/03 01:40:44;;;;;;;34.20;16.80;;;;;;;;;;5131979;28;20203;-66
2022/01/03 01:43:12;;;;;;;33.90;15.70;;;;;;;;;;5130848;28;20199;-66
2022/01/03 01:45:43;;;;;;;28.10;15.53;;;;;;;;;;5128791;28;20211;-66
2022/01/03 01:48:12;;;;;;;34.13;15.77;;;;;;;;;;5127747;28;20276;-66
2022/01/03 01:50:40;;;;;;;36.87;15.13;;;;;;;;;;5136526;28;20223;-66
2022/01/03 01:53:09;;;;;;;33.13;15.73;;;;;;;;;;5135833;28;20223;-66
2022/01/03 01:55:39;;;;;;;33.33;15.53;;;;;;;;;;5131582;28;20219;-66
2022/01/03 01:58:15;;;;;;;33.83;15.10;;;;;;;;;;5127569;28;20669;-66
2022/01/03 02:00:46;;;;;;;34.07;16.50;;;;;;;;;;5136830;28;20203;-66
2022/01/03 02:03:15;;;;;;;29.27;14.83;;;;;;;;;;5136111;28;20226;-66
2022/01/03 02:05:44;;;;;;;29.17;14.67;;;;;;;;;;5136977;28;20196;-66
2022/01/03 02:08:13;;;;;;;35.43;16.67;;;;;;;;;;5127848;28;20192;-66
2022/01/03 02:10:42;;;;;;;36.30;16.93;;;;;;;;;;5131634;28;20200;-66
2022/01/03 02:13:10;;;;;;;30.77;16.73;;;;;;;;;;5125127;28;20222;-66
2022/01/03 02:15:39;;;;;;;31.03;15.40;;;;;;;;;;5132157;28;20355;-66
2022/01/03 02:18:08;;;;;;;27.67;15.60;;;;;;;;;;5135698;28;20197;-66
2022/01/03 02:20:38;;;;;;;31.87;14.40;;;;;;;;;;5134213;27;20688;-66
2022/01/03 02:23:06;;;;;;;27.77;14.77;;;;;;;;;;5134869;27;20188;-66
2022/01/03 02:25:35;;;;;;;36.03;16.43;;;;;;;;;;5132187;27;20203;-66
2022/01/03 02:28:03;;;;;;;27.43;14.37;;;;;;;;;;5131627;27;20207;-66
2022/01/03 02:30:31;;;;;;;26.57;15.10;;;;;;;;;;5139775;27;20242;-67
2022/01/03 02:32:59;;;;;;;30.70;14.73;;;;;;;;;;5140381;27;21046;-66
2022/01/03 02:35:27;;;;;;;31.57;16.30;;;;;;;;;;5139926;27;20211;-66
2022/01/03 02:37:57;;;;;;;30.40;15.27;;;;;;;;;;5133768;27;20192;-66
2022/01/03 02:40:25;;;;;;;30.60;15.93;;;;;;;;;;5139662;27;20206;-66
2022/01/03 02:42:53;;;;;;;28.53;15.17;;;;;;;;;;5140185;27;20200;-67
2022/01/03 02:45:22;;;;;;;28.37;14.93;;;;;;;;;;5125601;27;20563;-66
2022/01/03 02:47:51;;;;;;;26.87;15.63;;;;;;;;;;5135799;27;20293;-66
2022/01/03 02:50:20;;;;;;;28.90;14.90;;;;;;;;;;5134626;27;20200;-66
2022/01/03 02:52:49;;;;;;;30.43;15.53;;;;;;;;;;5128330;27;20211;-66
2022/01/03 02:55:18;;;;;;;31.27;15.50;;;;;;;;;;5134508;27;20216;-66
2022/01/03 02:57:48;;;;;;;30.63;15.10;;;;;;;;;;5138950;27;20247;-66
2022/01/03 03:00:18;;;;;;;27.07;14.50;;;;;;;;;;5139977;27;20202;-66
2022/01/03 03:02:46;;;;;;;32.37;17.00;;;;;;;;;;5128744;27;20209;-66
2022/01/03 03:05:14;;;;;;;30.27;14.90;;;;;;;;;;5134542;27;20208;-66
2022/01/03 03:07:42;;;;;;;31.93;16.27;;;;;;;;;;5135778;27;20284;-66
2022/01/03 03:10:12;;;;;;;29.80;14.93;;;;;;;;;;5129580;27;20200;-66
2022/01/03 03:12:42;;;;;;;31.07;15.83;;;;;;;;;;5139185;27;20211;-66
2022/01/03 03:15:11;;;;;;;28.77;15.67;;;;;;;;;;5139829;27;20219;-66
2022/01/03 03:17:40;;;;;;;34.63;16.67;;;;;;;;;;5138799;27;20288;-66
2022/01/03 03:20:08;;;;;;;30.03;14.87;;;;;;;;;;5131344;27;20196;-66
2022/01/03 03:22:40;;;;;;;38.77;18.20;;;;;;;;;;5134002;27;20214;-66
2022/01/03 03:25:09;;;;;;;35.53;16.67;;;;;;;;;;5131661;27;20193;-66
2022/01/03 03:27:43;;;;;;;30.57;15.57;;;;;;;;;;5136448;27;20243;-66
2022/01/03 03:30:16;;;;;;;35.50;17.23;;;;;;;;;;5139340;27;20241;-66
2022/01/03 03:32:45;;;;;;;28.70;14.57;;;;;;;;;;5136789;27;20205;-66
2022/01/03 03:35:13;;;;;;;35.37;16.23;;;;;;;;;;5132332;27;20234;-67
2022/01/03 03:37:41;;;;;;;33.10;16.33;;;;;;;;;;5136374;27;20224;-67
2022/01/03 03:40:09;;;;;;;32.43;16.57;;;;;;;;;;5137467;27;20204;-66
2022/01/03 03:42:38;;;;;;;33.27;16.67;;;;;;;;;;5132677;27;20295;-67
2022/01/03 03:45:07;;;;;;;34.37;16.77;;;;;;;;;;5136924;27;20192;-67
2022/01/03 03:47:36;;;;;;;31.73;17.50;;;;;;;;;;5137939;27;20275;-66
2022/01/03 03:50:05;;;;;;;35.00;17.50;;;;;;;;;;5131103;27;20200;-66
2022/01/03 03:52:33;;;;;;;35.73;16.37;;;;;;;;;;5138880;27;20236;-66
2022/01/03 03:55:01;;;;;;;34.90;17.17;;;;;;;;;;5137876;27;20224;-66
2022/01/03 03:57:29;;;;;;;36.23;16.87;;;;;;;;;;5136447;27;20228;-67
2022/01/03 03:59:57;;;;;;;37.27;17.37;;;;;;;;;;5137822;27;20591;-66
2022/01/03 04:02:25;;;;;;;36.17;16.40;;;;;;;;;;5133685;27;20670;-66
2022/01/03 04:04:56;;;;;;;40.77;18.00;;;;;;;;;;5135667;27;20230;-67
2022/01/03 04:07:24;;;;;;;39.53;19.70;;;;;;;;;;5135234;27;20216;-66
2022/01/03 04:09:52;;;;;;;41.20;20.03;;;;;;;;;;5137607;27;20569;-66
2022/01/03 04:12:20;;;;;;;38.90;17.47;;;;;;;;;;5138317;27;20570;-66
2022/01/03 04:14:49;;;;;;;39.33;17.43;;;;;;;;;;5137534;27;20226;-66
2022/01/03 04:17:16;;;;;;;34.67;16.20;;;;;;;;;;5137825;27;20698;-66
2022/01/03 04:19:44;;;;;;;40.43;17.83;;;;;;;;;;5135524;27;20207;-66
2022/01/03 04:22:18;;;;;;;46.63;18.03;;;;;;;;;;5125955;27;20659;-66
2022/01/03 04:24:46;;;;;;;42.07;18.67;;;;;;;;;;5139046;27;20196;-66
2022/01/03 04:27:14;;;;;;;33.43;17.77;;;;;;;;;;5133217;27;20247;-66
2022/01/03 04:29:42;;;;;;;39.13;18.20;;;;;;;;;;5138166;27;20207;-66
2022/01/03 04:32:10;;;;;;;36.13;16.90;;;;;;;;;;5137442;27;20200;-66
2022/01/03 04:34:38;;;;;;;43.53;19.13;;;;;;;;;;5137575;27;20216;-66
2022/01/03 04:37:09;;;;;;;37.87;17.63;;;;;;;;;;5137152;27;20221;-66
2022/01/03 04:39:39;;;;;;;41.93;19.10;;;;;;;;;;5137650;27;20200;-66
2022/01/03 04:42:07;;;;;;;43.87;19.70;;;;;;;;;;5136462;27;20550;-66
2022/01/03 04:44:35;;;;;;;39.10;18.43;;;;;;;;;;5137786;27;20196;-66
2022/01/03 04:47:03;;;;;;;41.63;19.00;;;;;;;;;;5136449;27;20238;-67
2022/01/03 04:49:31;;;;;;;43.20;20.10;;;;;;;;;;5137643;27;20196;-66
2022/01/03 04:51:59;;;;;;;46.87;20.77;;;;;;;;;;5136804;27;20212;-67
2022/01/03 04:54:27;;;;;;;40.13;19.07;;;;;;;;;;5137941;27;20220;-66
2022/01/03 04:56:59;;;;;;;45.00;20.63;;;;;;;;;;5127931;27;20250;-66
2022/01/03 04:59:27;;;;;;;41.93;19.30;;;;;;;;;;5130032;27;20207;-67
2022/01/03 05:01:55;;;;;;;45.20;19.17;;;;;;;;;;5135015;27;20204;-66
2022/01/03 05:04:23;;;;;;;49.93;21.83;;;;;;;;;;5137030;27;20192;-66
2022/01/03 05:06:51;;;;;;;60.87;24.43;;;;;;;;;;5137261;27;20227;-65
2022/01/03 05:09:19;;;;;;;72.10;28.47;;;;;;;;;;5129025;27;20204;-67
2022/01/03 05:11:47;;;;;;;75.63;28.20;;;;;;;;;;5136889;27;20292;-67
2022/01/03 05:14:17;;;;;;;77.33;29.03;;;;;;;;;;5133797;27;20214;-67
2022/01/03 05:16:45;;;;;;;69.30;27.03;;;;;;;;;;5133982;27;20682;-67
2022/01/03 05:19:12;;;;;;;79.73;29.50;;;;;;;;;;5133383;27;20207;-66
2022/01/03 05:21:40;;;;;;;98.30;31.23;;;;;;;;;;5135203;27;20200;-66
2022/01/03 05:24:08;;;;;;;79.70;29.97;;;;;;;;;;5135772;27;20197;-66
2022/01/03 05:26:36;;;;;;;79.10;29.07;;;;;;;;;;5136626;27;20323;-66
2022/01/03 05:29:04;;;;;;;93.93;29.47;;;;;;;;;;5136401;27;20667;-66
2022/01/03 05:31:34;;;;;;;96.77;32.50;;;;;;;;;;5135380;27;20672;-66
2022/01/03 05:34:02;;;;;;;95.80;33.20;;;;;;;;;;5134371;27;20196;-66
2022/01/03 05:36:30;;;;;;;97.73;32.07;;;;;;;;;;5134965;27;20234;-66
2022/01/03 05:38:58;;;;;;;84.97;29.23;;;;;;;;;;5133765;27;20200;-67
2022/01/03 05:41:26;;;;;;;85.00;31.40;;;;;;;;;;5133410;27;20665;-66
2022/01/03 05:43:56;;;;;;;74.73;27.83;;;;;;;;;;5135704;28;20193;-66
2022/01/03 05:46:24;;;;;;;76.23;29.10;;;;;;;;;;5133333;28;20208;-67
2022/01/03 05:48:54;;;;;;;68.97;27.00;;;;;;;;;;5135308;28;20243;-65
2022/01/03 05:51:22;;;;;;;67.33;26.47;;;;;;;;;;5134247;28;20207;-66
2022/01/03 05:53:50;;;;;;;61.33;23.13;;;;;;;;;;5131604;27;20192;-66
2022/01/03 05:56:18;;;;;;;51.97;22.80;;;;;;;;;;5133751;27;20223;-66
2022/01/03 05:58:46;;;;;;;51.00;22.37;;;;;;;;;;5130958;27;20647;-66
2022/01/03 06:01:14;;;;;;;50.80;22.37;;;;;;;;;;5133202;27;20287;-66
2022/01/03 06:03:43;;;;;;;51.83;23.30;;;;;;;;;;5139768;27;20596;-66
2022/01/03 06:06:31;;;;;;;46.57;21.00;;;;;;;;;;5145734;27;20211;-66
2022/01/03 06:08:59;;;;;;;43.70;21.57;;;;;;;;;;5138194;27;20211;-66
2022/01/03 06:11:27;;;;;;;35.60;20.87;;;;;;;;;;5131502;27;20205;-66
2022/01/03 06:13:54;;;;;;;38.23;19.67;;;;;;;;;;5140449;27;20192;-66
2022/01/03 06:16:24;;;;;;;37.33;17.50;;;;;;;;;;5139746;27;20234;-66
2022/01/03 06:18:52;;;;;;;44.47;19.40;;;;;;;;;;5133652;27;20196;-66
2022/01/03 06:21:23;;;;;;;36.83;17.43;;;;;;;;;;5135097;27;20204;-66
2022/01/03 06:23:51;;;;;;;39.80;19.37;;;;;;;;;;5140089;27;20196;-66
2022/01/03 06:26:19;;;;;;;33.87;18.37;;;;;;;;;;5140288;27;20222;-66
2022/01/03 06:28:47;;;;;;;35.77;18.27;;;;;;;;;;5136998;27;20215;-67
2022/01/03 06:31:15;;;;;;;34.63;19.27;;;;;;;;;;5137195;27;20210;-66
2022/01/03 06:33:43;;;;;;;32.00;17.30;;;;;;;;;;5140475;27;20207;-67
2022/01/03 06:36:11;;;;;;;32.93;18.10;;;;;;;;;;5135201;27;20239;-68
2022/01/03 06:38:40;;;;;;;29.27;17.00;;;;;;;;;;5136604;27;20202;-67
2022/01/03 06:41:08;;;;;;;34.10;16.00;;;;;;;;;;5145276;27;20209;-67
2022/01/03 06:43:37;;;;;;;33.23;16.10;;;;;;;;;;5144472;27;20295;-67
2022/01/03 06:46:05;;;;;;;37.63;17.60;;;;;;;;;;5142120;27;20230;-66
2022/01/03 06:48:33;;;;;;;31.60;17.40;;;;;;;;;;5143132;27;20232;-67
2022/01/03 06:51:01;;;;;;;38.23;18.70;;;;;;;;;;5138810;27;20201;-67
2022/01/03 06:53:29;;;;;;;38.53;17.60;;;;;;;;;;5139846;27;20202;-67
2022/01/03 06:55:59;;;;;;;36.13;18.17;;;;;;;;;;5138381;27;20671;-67
2022/01/03 06:58:26;;;;;;;36.73;17.67;;;;;;;;;;5139577;27;20200;-67
2022/01/03 07:00:54;;;;;;;43.67;18.90;;;;;;;;;;5143603;27;20196;-66
2022/01/03 07:03:23;;;;;;;34.80;18.00;;;;;;;;;;5136785;27;20200;-67
2022/01/03 07:05:51;;;;;;;32.43;16.47;;;;;;;;;;5132758;27;20221;-67
2022/01/03 07:08:21;;;;;;;34.33;17.87;;;;;;;;;;5129936;27;20273;-67
2022/01/03 07:10:55;;;;;;;35.53;17.40;;;;;;;;;;5135528;27;20265;-67
2022/01/03 07:13:30;;;;;;;36.03;18.57;;;;;;;;;;5132030;27;20282;-67
2022/01/03 07:18:57;;;;;;;37.33;17.80;;;;;;;;;;5131586;27;20196;-68
2022/01/03 07:21:25;;;;;;;38.60;17.83;;;;;;;;;;5135460;27;20200;-67
2022/01/03 07:23:53;;;;;;;33.30;17.17;;;;;;;;;;5133455;27;20308;-68
2022/01/03 07:26:21;;;;;;;33.37;16.20;;;;;;;;;;5129657;27;20216;-67
2022/01/03 07:28:51;;;;;;;27.67;16.33;;;;;;;;;;5130448;27;20200;-67
2022/01/03 07:31:20;;;;;;;31.83;16.23;;;;;;;;;;5139133;27;20204;-67
2022/01/03 07:33:49;;;;;;;29.73;16.23;;;;;;;;;;5130413;27;20261;-67
2022/01/03 07:36:17;;;;;;;32.77;16.50;;;;;;;;;;5136876;27;20255;-68
2022/01/03 07:38:46;;;;;;;31.17;16.50;;;;;;;;;;5131750;27;20201;-67
2022/01/03 07:41:16;;;;;;;34.60;16.47;;;;;;;;;;5138222;27;20747;-67
2022/01/03 07:43:45;;;;;;;30.67;17.73;;;;;;;;;;5137566;27;20200;-67
2022/01/03 07:46:14;;;;;;;37.03;20.33;;;;;;;;;;5129283;27;20215;-67
2022/01/03 07:48:48;;;;;;;29.23;17.27;;;;;;;;;;5129404;27;20232;-68
2022/01/03 07:51:17;;;;;;;30.90;17.03;;;;;;;;;;5130134;27;20200;-68
2022/01/03 07:53:45;;;;;;;30.03;16.63;;;;;;;;;;5129722;27;20662;-67
2022/01/03 07:56:13;;;;;;;29.90;16.00;;;;;;;;;;5131034;27;20220;-67
2022/01/03 07:58:41;;;;;;;32.20;16.03;;;;;;;;;;5135863;27;20208;-67
2022/01/03 08:01:10;;;;;;;35.97;17.57;;;;;;;;;;5140100;27;20199;-66
2022/01/03 08:03:40;;;;;;;32.53;17.70;;;;;;;;;;5144833;27;20256;-67
2022/01/03 08:06:09;;;;;;;40.13;18.10;;;;;;;;;;5143730;27;20286;-67
2022/01/03 08:08:38;;;;;;;34.30;17.17;;;;;;;;;;5139391;27;20192;-67
2022/01/03 08:11:06;;;;;;;33.00;16.60;;;;;;;;;;5137676;27;20225;-67
2022/01/03 08:13:34;;;;;;;40.83;18.90;;;;;;;;;;5128871;27;20219;-67
2022/01/03 08:16:02;;;;;;;35.40;18.37;;;;;;;;;;5137767;27;20221;-65
2022/01/03 08:18:33;;;;;;;35.03;17.73;;;;;;;;;;5136416;27;20192;-67
2022/01/03 08:21:03;;;;;;;27.20;15.63;;;;;;;;;;5134866;27;20196;-65
2022/01/03 08:23:32;;;;;;;36.33;18.67;;;;;;;;;;5134791;27;20223;-65
2022/01/03 08:26:00;;;;;;;36.37;17.63;;;;;;;;;;5137905;27;20296;-65
2022/01/03 08:28:32;;;;;;;32.83;17.27;;;;;;;;;;5137424;27;20200;-65
2022/01/03 08:31:00;;;;;;;31.37;15.80;;;;;;;;;;5132759;27;20208;-65
2022/01/03 08:33:28;;;;;;;30.20;15.90;;;;;;;;;;5126652;27;20197;-67
2022/01/03 08:35:58;;;;;;;27.67;15.03;;;;;;;;;;5131410;27;20216;-68
2022/01/03 08:38:28;;;;;;;25.40;13.60;;;;;;;;;;5134316;27;20628;-67
2022/01/03 08:40:56;;;;;;;26.33;14.27;;;;;;;;;;5132635;27;20289;-66
2022/01/03 08:43:24;;;;;;;27.93;15.23;;;;;;;;;;5135854;27;20192;-66
2022/01/03 08:45:53;;;;;;;29.30;14.67;;;;;;;;;;5136624;27;20251;-65
2022/01/03 08:48:22;;;;;;;28.73;15.43;;;;;;;;;;5131346;27;20278;-65
2022/01/03 08:50:50;;;;;;;30.97;16.27;;;;;;;;;;5134850;27;20204;-67
2022/01/03 08:53:21;;;;;;;28.47;13.77;;;;;;;;;;5128810;27;20225;-65
2022/01/03 08:55:53;;;;;;;28.17;15.73;;;;;;;;;;5136697;27;20252;-67
2022/01/03 08:58:21;;;;;;;26.50;14.07;;;;;;;;;;5137523;27;20220;-67
2022/01/03 09:00:49;;;;;;;26.43;13.67;;;;;;;;;;5136089;27;20195;-66
2022/01/03 09:03:18;;;;;;;26.90;13.73;;;;;;;;;;5125767;27;20225;-67
2022/01/03 09:05:46;;;;;;;32.10;15.30;;;;;;;;;;5120734;27;20205;-67
2022/01/03 09:08:16;;;;;;;28.27;13.80;;;;;;;;;;5135594;27;20196;-65
2022/01/03 09:10:44;;;;;;;28.97;14.17;;;;;;;;;;5137458;27;20679;-67
2022/01/03 09:13:14;;;;;;;25.80;14.97;;;;;;;;;;5135528;27;20196;-65
2022/01/03 09:15:46;;;;;;;25.07;13.73;;;;;;;;;;5130959;27;20225;-65
2022/01/03 09:18:14;;;;;;;25.50;14.60;;;;;;;;;;5136093;27;20227;-66
2022/01/03 09:20:42;;;;;;;22.70;13.00;;;;;;;;;;5131354;27;20206;-65
2022/01/03 09:23:14;;;;;;;23.57;13.30;;;;;;;;;;5134050;27;20206;-66
2022/01/03 09:31:16;;;;;;;23.80;13.33;;;;;;;;;;5136106;27;20214;-65
2022/01/03 09:33:48;;;;;;;23.90;13.60;;;;;;;;;;5136774;27;20675;-65
2022/01/03 09:36:17;;;;;;;32.17;15.30;;;;;;;;;;5135687;27;20220;-66
2022/01/03 09:38:45;;;;;;;26.87;14.13;;;;;;;;;;5123915;27;20220;-66
2022/01/03 09:41:14;;;;;;;28.00;13.83;;;;;;;;;;5136816;27;20196;-66
2022/01/03 09:43:47;;;;;;;27.77;15.60;;;;;;;;;;5133428;28;20628;-65
2022/01/03 09:46:26;;;;;;;25.30;13.53;;;;;;;;;;5135935;28;20216;-65
2022/01/03 09:48:55;;;;;;;24.13;14.27;;;;;;;;;;5136442;28;20285;-68
2022/01/03 09:51:25;;;;;;;26.57;14.77;;;;;;;;;;5136281;28;20750;-67
2022/01/03 09:53:54;;;;;;;25.77;14.57;;;;;;;;;;5129230;28;20204;-66
2022/01/03 09:56:22;;;;;;;27.67;15.03;;;;;;;;;;5139666;27;20220;-67
2022/01/03 09:58:52;;;;;;;30.17;16.00;;;;;;;;;;5135512;28;20220;-68
2022/01/03 10:01:20;;;;;;;26.73;14.60;;;;;;;;;;5136356;27;20654;-68
2022/01/03 10:03:48;;;;;;;28.70;15.70;;;;;;;;;;5135735;28;20200;-68
2022/01/03 10:06:17;;;;;;;28.87;15.43;;;;;;;;;;5136134;28;20220;-68
2022/01/03 10:08:45;;;;;;;26.67;13.93;;;;;;;;;;5135696;28;20284;-67
2022/01/03 10:11:14;;;;;;;22.13;13.50;;;;;;;;;;5136502;28;20200;-66
2022/01/03 10:13:42;;;;;;;28.57;14.60;;;;;;;;;;5125513;28;20211;-67
2022/01/03 10:16:12;;;;;;;27.07;15.07;;;;;;;;;;5136295;28;20238;-66
2022/01/03 10:19:00;;;;;;;23.00;13.83;;;;;;;;;;5131883;28;20248;-67
2022/01/03 10:21:35;;;;;;;25.97;14.50;;;;;;;;;;5127753;28;20200;-66
2022/01/03 10:24:03;;;;;;;21.97;13.20;;;;;;;;;;5127078;28;20564;-67
2022/01/03 10:26:32;;;;;;;26.20;13.33;;;;;;;;;;5129583;28;20221;-65
2022/01/03 10:29:13;;;;;;;24.23;13.73;;;;;;;;;;5135193;28;20245;-68
2022/01/03 10:31:43;;;;;;;19.57;13.10;;;;;;;;;;5136130;28;20225;-68
2022/01/03 10:34:12;;;;;;;19.23;12.10;;;;;;;;;;5127709;28;20207;-68
2022/01/03 10:36:42;;;;;;;20.30;12.30;;;;;;;;;;5136217;28;20220;-67
2022/01/03 10:39:14;;;;;;;23.10;13.50;;;;;;;;;;5135489;28;20328;-65
2022/01/03 10:41:43;;;;;;;17.70;12.03;;;;;;;;;;5136909;27;20212;-67
2022/01/03 10:44:12;;;;;;;20.90;12.10;;;;;;;;;;5126954;27;20208;-67
2022/01/03 10:46:50;;;;;;;26.40;15.40;;;;;;;;;;5133793;27;20216;-67
2022/01/03 10:49:19;;;;;;;25.67;16.03;;;;;;;;;;5138890;27;20227;-65
2022/01/03 10:51:50;;;;;;;21.40;13.83;;;;;;;;;;5134600;27;20242;-66
2022/01/03 10:54:20;;;;;;;19.13;12.33;;;;;;;;;;5131241;27;20254;-65
2022/01/03 10:56:50;;;;;;;20.50;13.17;;;;;;;;;;5135666;27;20217;-67
2022/01/03 10:59:21;;;;;;;18.70;12.43;;;;;;;;;;5138711;27;20230;-68
2022/01/03 11:01:53;;;;;;;17.73;12.57;;;;;;;;;;5143460;27;20270;-67
2022/01/03 11:04:31;;;;;;;20.10;13.60;;;;;;;;;;5145187;27;20205;-67
2022/01/03 11:10:43;;;;;;;22.23;13.80;;;;;;;;;;5148840;27;20220;-67
2022/01/03 11:13:03;;;;;;;17.53;12.87;;;;;;;;;;5138194;27;20574;-68
2022/01/03 11:15:31;;;;;;;18.77;12.47;;;;;;;;;;5129128;27;20196;-66
2022/01/03 11:18:09;;;;;;;20.83;13.27;;;;;;;;;;5138785;27;20227;-68
2022/01/03 11:20:38;;;;;;;20.23;12.63;;;;;;;;;;5136887;27;20196;-68
2022/01/03 11:23:06;;;;;;;22.97;11.73;;;;;;;;;;5142994;27;20203;-67
2022/01/03 11:25:35;;;;;;;19.87;11.53;;;;;;;;;;5140733;27;20206;-67
2022/01/03 11:28:03;;;;;;;21.10;12.93;;;;;;;;;;5145223;27;20557;-67
2022/01/03 11:30:32;;;;;;;21.07;13.43;;;;;;;;;;5141900;27;20200;-67
2022/01/03 11:33:00;;;;;;;17.60;11.73;;;;;;;;;;5140635;27;20237;-66
2022/01/03 11:35:33;;;;;;;23.13;13.20;;;;;;;;;;5146505;27;20226;-65
2022/01/03 11:38:02;;;;;;;17.13;11.53;;;;;;;;;;5138844;27;20231;-65
2022/01/03 11:40:30;;;;;;;20.13;13.30;;;;;;;;;;5136970;27;20196;-68
2022/01/03 11:42:58;;;;;;;16.87;11.70;;;;;;;;;;5138617;27;20288;-66
2022/01/03 11:45:26;;;;;;;15.93;11.87;;;;;;;;;;5137916;27;20287;-67
2022/01/03 11:47:55;;;;;;;17.47;11.23;;;;;;;;;;5138501;27;20228;-68
2022/01/03 11:50:23;;;;;;;17.60;12.33;;;;;;;;;;5137724;27;20204;-68
2022/01/03 11:52:53;;;;;;;19.10;12.53;;;;;;;;;;5130474;27;20200;-66
2022/01/03 11:55:23;;;;;;;19.87;13.37;;;;;;;;;;5135894;27;20196;-66
2022/01/03 11:58:19;;;;;;;19.73;11.83;;;;;;;;;;5138187;27;20222;-66
2022/01/03 12:03:54;;;;;;;16.60;10.47;;;;;;;;;;5142182;27;20199;-67
2022/01/03 12:06:30;;;;;;;16.50;9.60;;;;;;;;;;5144946;27;20250;-64
2022/01/03 12:09:05;;;;;;;11.87;8.73;;;;;;;;;;5137687;27;20197;-62
2022/01/03 12:11:34;;;;;;;16.37;8.83;;;;;;;;;;5123340;27;20204;-62
2022/01/03 12:14:09;;;;;;;11.93;8.17;;;;;;;;;;5125508;27;20197;-63
2022/01/03 12:16:39;;;;;;;13.23;8.03;;;;;;;;;;5125034;27;20226;-63
2022/01/03 12:19:10;;;;;;;13.33;9.00;;;;;;;;;;5134279;27;20585;-64
2022/01/03 12:21:53;;;;;;;12.77;9.07;;;;;;;;;;5142534;27;20200;-65
2022/01/03 12:24:54;;;;;;;14.13;10.73;;;;;;;;;;5140484;27;20207;-65
2022/01/03 12:27:30;;;;;;;16.30;10.77;;;;;;;;;;5142351;27;20305;-65
2022/01/03 12:30:09;;;;;;;13.90;9.77;;;;;;;;;;5144046;27;20191;-65
2022/01/03 12:32:40;;;;;;;22.20;11.50;;;;;;;;;;5141385;27;20889;-62
2022/01/03 12:35:24;;;;;;;16.70;10.43;;;;;;;;;;5147333;27;20200;-65
2022/01/03 12:38:14;;;;;;;16.57;11.30;;;;;;;;;;5145316;27;20200;-68
2022/01/03 12:40:49;;;;;;;20.10;12.27;;;;;;;;;;5131497;27;20686;-68
2022/01/03 12:43:19;;;;;;;18.40;11.70;;;;;;;;;;5127416;27;20200;-68
2022/01/03 12:45:52;;;;;;;18.43;12.33;;;;;;;;;;5129489;27;20684;-69
2022/01/03 12:48:21;;;;;;;18.73;12.17;;;;;;;;;;5132450;27;20570;-69
2022/01/03 12:51:04;;;;;;;16.57;10.90;;;;;;;;;;5128917;27;20200;-68
2022/01/03 12:53:40;;;;;;;19.87;12.07;;;;;;;;;;5132300;27;20200;-68
2022/01/03 12:56:10;;;;;;;16.53;10.43;;;;;;;;;;5132470;27;20222;-68
2022/01/03 12:58:40;;;;;;;13.73;10.10;;;;;;;;;;5126524;27;20311;-67
2022/01/03 13:01:10;;;;;;;12.30;9.03;;;;;;;;;;5126541;27;20196;-65
2022/01/03 13:03:44;;;;;;;21.17;7.80;;;;;;;;;;5123620;27;20201;-67
2022/01/03 13:06:16;;;;;;;11.47;8.00;;;;;;;;;;5121611;27;20223;-67
2022/01/03 13:09:00;;;;;;;8.37;5.17;;;;;;;;;;5120872;27;20204;-65
2022/01/03 13:11:29;;;;;;;5.80;4.30;;;;;;;;;;5119930;27;20223;-67
2022/01/03 13:14:04;;;;;;;9.20;4.33;;;;;;;;;;5118842;27;20228;-68
2022/01/03 13:16:33;;;;;;;7.93;4.50;;;;;;;;;;5120653;27;20269;-68
2022/01/03 13:19:02;;;;;;;6.67;3.57;;;;;;;;;;5118748;27;20612;-67
2022/01/03 13:21:34;;;;;;;5.97;3.77;;;;;;;;;;5120082;27;20201;-66
2022/01/03 13:24:04;;;;;;;7.17;3.73;;;;;;;;;;5143666;27;20263;-66
2022/01/03 13:26:33;;;;;;;5.33;3.70;;;;;;;;;;5145618;27;20219;-66
2022/01/03 13:29:04;;;;;;;7.43;3.27;;;;;;;;;;5137396;27;20196;-68
2022/01/03 13:31:39;;;;;;;7.37;3.30;;;;;;;;;;5130751;27;20196;-66
2022/01/03 13:34:08;;;;;;;5.87;3.37;;;;;;;;;;5138573;27;20612;-68
2022/01/03 13:36:37;;;;;;;4.20;3.73;;;;;;;;;;5140894;27;20220;-69
2022/01/03 13:39:05;;;;;;;3.97;3.10;;;;;;;;;;5140556;27;20629;-68
2022/01/03 13:41:35;;;;;;;8.33;3.23;;;;;;;;;;5133166;27;20224;-68
2022/01/03 13:44:06;;;;;;;7.43;3.70;;;;;;;;;;5142826;27;20200;-68
2022/01/03 13:49:22;;;;;;;6.43;3.10;;;;;;;;;;5135466;28;20227;-68
2022/01/03 13:51:52;;;;;;;7.90;3.63;;;;;;;;;;5135969;28;20200;-67
2022/01/03 13:54:25;;;;;;;5.20;3.40;;;;;;;;;;5136184;27;20204;-68
2022/01/03 13:56:53;;;;;;;5.47;2.60;;;;;;;;;;5139581;27;20223;-68
2022/01/03 13:59:24;;;;;;;5.10;3.33;;;;;;;;;;5135487;28;20220;-68
2022/01/03 14:01:52;;;;;;;8.37;3.00;;;;;;;;;;5127649;27;20658;-68
2022/01/03 14:04:21;;;;;;;6.87;3.20;;;;;;;;;;5135559;28;20874;-68
2022/01/03 14:07:04;;;;;;;3.97;2.50;;;;;;;;;;5134904;28;20578;-68
2022/01/03 14:09:36;;;;;;;4.07;3.03;;;;;;;;;;5135293;28;20204;-68
2022/01/03 14:12:13;;;;;;;6.77;3.07;;;;;;;;;;5129089;28;20197;-68
2022/01/03 14:14:45;;;;;;;5.93;2.73;;;;;;;;;;5121994;28;20231;-68
2022/01/03 14:17:13;;;;;;;3.77;2.00;;;;;;;;;;5139187;27;20245;-68
2022/01/03 14:19:41;;;;;;;5.23;2.40;;;;;;;;;;5137202;27;20778;-68
2022/01/03 14:22:13;;;;;;;9.40;2.90;;;;;;;;;;5139846;27;20201;-68
2022/01/03 14:24:55;;;;;;;4.87;3.00;;;;;;;;;;5131570;27;20205;-68
2022/01/03 14:27:23;;;;;;;5.63;3.00;;;;;;;;;;5142083;27;20226;-68
2022/01/03 14:29:53;;;;;;;5.30;3.03;;;;;;;;;;5130383;27;20203;-68
2022/01/03 14:32:21;;;;;;;5.80;3.20;;;;;;;;;;5144505;27;20202;-70
2022/01/03 14:34:52;;;;;;;9.10;3.57;;;;;;;;;;5146469;27;20214;-69
2022/01/03 14:37:24;;;;;;;8.57;3.00;;;;;;;;;;5146849;27;20291;-66
2022/01/03 14:39:54;;;;;;;5.03;2.77;;;;;;;;;;5144125;27;20216;-66
2022/01/03 14:42:34;;;;;;;5.67;3.00;;;;;;;;;;5141545;27;20224;-65
2022/01/03 14:45:11;;;;;;;3.33;2.37;;;;;;;;;;5139979;27;20201;-66
2022/01/03 14:47:39;;;;;;;7.10;3.00;;;;;;;;;;5138896;27;20240;-66
2022/01/03 14:50:07;;;;;;;4.10;2.20;;;;;;;;;;5139723;27;20189;-67
2022/01/03 14:52:37;;;;;;;5.83;3.17;;;;;;;;;;5138811;27;20200;-67
2022/01/03 14:55:05;;;;;;;6.50;3.07;;;;;;;;;;5138992;27;20206;-66